Time;durP1;ratioP1;P1;durP2;ratioP2;P2;SDS_P1;SDS_P2;PMS_P1;PMS_P2;Temp;Humidity;BMP_temperature;BMP_pressure;BME280_temperature;BME280_humidity;BME280_pressure;Samples;Min_cycle;Max_cycle;Signal;HPM_P1;HPM_P2
2023/01/21 00:00:35;;;;;;;12.13;6.00;;;-1.20;99.90;;;;;;5075187;28;20082;-87
2023/01/21 00:03:12;;;;;;;6.90;3.97;;;-1.20;99.90;;;;;;5073289;28;20054;-87
2023/01/21 00:05:44;;;;;;;5.70;4.00;;;-1.20;99.90;;;;;;5092567;28;20028;-87
2023/01/21 00:08:26;;;;;;;;;;;;;;;;;;;;;
2023/01/21 00:10:52;;;;;;;8.20;4.67;;;-1.20;99.90;;;;;;5088863;28;20040;-87
2023/01/21 00:13:43;;;;;;;;;;;;;;;;;;;;;
2023/01/21 00:16:19;;;;;;;6.43;4.18;;;-1.10;99.90;;;;;;5091532;28;20392;-87
2023/01/21 00:19:05;;;;;;;8.30;4.70;;;-1.20;99.90;;;;;;5094199;28;20073;-87
2023/01/21 00:21:52;;;;;;;7.53;4.80;;;-1.10;99.90;;;;;;5093689;28;20024;-88
2023/01/21 00:24:21;;;;;;;6.93;4.05;;;-1.20;99.90;;;;;;5075403;28;20445;-88
2023/01/21 00:26:58;;;;;;;8.38;6.00;;;-1.20;99.90;;;;;;5093194;28;20020;-87
2023/01/21 00:29:45;;;;;;;8.65;5.20;;;-1.20;99.90;;;;;;5075330;28;20370;-87
2023/01/21 00:32:20;;;;;;;;;;;;;;;;;;;;;
2023/01/21 00:34:57;;;;;;;11.85;7.18;;;-1.10;99.90;;;;;;5093716;28;20024;-87
2023/01/21 00:37:26;;;;;;;7.07;4.85;;;-1.10;99.90;;;;;;5093535;28;20039;-87
2023/01/21 00:39:53;;;;;;;8.90;6.50;;;-1.10;99.90;;;;;;5074764;28;20024;-87
2023/01/21 00:42:26;;;;;;;8.65;7.25;;;-1.10;99.90;;;;;;5092920;28;20036;-87
2023/01/21 00:47:41;;;;;;;5.85;3.75;;;-1.10;99.90;;;;;;5077251;28;20074;-87
2023/01/21 00:50:23;;;;;;;8.63;5.13;;;-1.10;99.90;;;;;;5073766;28;20016;-87
2023/01/21 00:53:42;;;;;;;;;;;;;;;;;;;;;
2023/01/21 00:56:13;;;;;;;6.38;4.47;;;-1.00;99.90;;;;;;5091714;28;20048;-87
2023/01/21 00:59:02;;;;;;;10.98;5.30;;;-1.00;99.90;;;;;;5073290;28;20054;-87
2023/01/21 01:01:37;;;;;;;9.50;6.22;;;-1.00;99.90;;;;;;5090600;28;20024;-88
2023/01/21 01:04:07;;;;;;;7.70;5.32;;;-1.10;99.90;;;;;;5072158;28;20454;-87
2023/01/21 01:06:56;;;;;;;;;;;;;;;;;;;;;
2023/01/21 01:09:40;;;;;;;7.57;5.00;;;-1.00;99.90;;;;;;5090342;28;20034;-88
2023/01/21 01:12:08;;;;;;;;;;;-1.00;99.90;;;;;;5074927;28;20034;-87
2023/01/21 01:15:06;;;;;;;8.55;4.57;;;-1.10;99.90;;;;;;5074850;28;19904;-88
2023/01/21 01:17:49;;;;;;;4.95;3.30;;;-1.10;99.90;;;;;;5089640;28;20086;-87
2023/01/21 01:20:25;;;;;;;;;;;;;;;;;;;;;
2023/01/21 01:23:05;;;;;;;;;;;;;;;;;;;;;
2023/01/21 01:26:04;;;;;;;;;;;;;;;;;;;;;
2023/01/21 01:28:44;;;;;;;7.82;4.78;;;-1.00;99.90;;;;;;5010391;28;20041;-88
2023/01/21 01:31:58;;;;;;;8.82;5.55;;;-1.00;99.90;;;;;;5080035;28;20040;-87
2023/01/21 01:34:44;;;;;;;6.05;4.25;;;-1.00;99.90;;;;;;5091050;28;20016;-87
2023/01/21 01:37:18;;;;;;;5.32;4.38;;;-1.00;99.90;;;;;;5063591;28;20139;-87
2023/01/21 01:43:00;;;;;;;6.00;4.45;;;-1.00;99.90;;;;;;5067400;28;20197;-87
2023/01/21 01:45:46;;;;;;;7.18;4.80;;;-1.00;99.90;;;;;;5092345;28;20034;-88
2023/01/21 01:48:46;;;;;;;;;;;;;;;;;;;;;
2023/01/21 01:51:44;;;;;;;7.68;4.75;;;-1.00;99.90;;;;;;5082468;28;20036;-87
2023/01/21 01:54:36;;;;;;;5.57;3.88;;;-1.00;99.90;;;;;;5072245;28;20035;-88
2023/01/21 01:57:09;;;;;;;8.38;4.43;;;-1.00;99.90;;;;;;5079632;28;20044;-86
2023/01/21 02:00:56;;;;;;;;;;;;;;;;;;;;;
2023/01/21 02:03:45;;;;;;;6.60;4.47;;;-1.00;99.90;;;;;;5069044;28;20039;-87
2023/01/21 02:07:03;;;;;;;7.13;4.60;;;-1.00;99.90;;;;;;5091708;28;20017;-88
2023/01/21 02:10:28;;;;;;;5.45;4.32;;;-1.00;99.90;;;;;;5066075;28;20032;-88
2023/01/21 02:16:46;;;;;;;;;;;;;;;;;;;;;
2023/01/21 02:23:12;;;;;;;;;;;;;;;;;;;;;
2023/01/21 02:25:55;;;;;;;6.70;4.32;;;-1.10;99.90;;;;;;4990823;28;20036;-88
2023/01/21 02:28:57;;;;;;;5.53;4.18;;;-1.10;99.90;;;;;;5030154;28;20442;-88
2023/01/21 02:31:47;;;;;;;7.60;4.22;;;-1.10;99.90;;;;;;5033317;28;20030;-88
2023/01/21 02:35:19;;;;;;;6.35;4.85;;;-1.10;99.90;;;;;;5016154;28;20048;-87
2023/01/21 02:38:30;;;;;;;5.75;4.55;;;-1.10;99.90;;;;;;4955098;29;20051;-87
2023/01/21 02:41:24;;;;;;;6.40;4.43;;;-1.10;99.90;;;;;;5034057;28;20107;-87
2023/01/21 02:44:53;;;;;;;;;;;;;;;;;;;;;
2023/01/21 02:48:19;;;;;;;;;;;;;;;;;;;;;
2023/01/21 02:51:47;;;;;;;6.15;4.03;;;-1.10;99.90;;;;;;5050431;28;20029;-87
2023/01/21 02:55:33;;;;;;;;;;;;;;;;;;;;;
2023/01/21 02:58:50;;;;;;;;;;;;;;;;;;;;;
2023/01/21 03:02:15;;;;;;;;;;;;;;;;;;;;;
2023/01/21 03:05:19;;;;;;;4.43;3.47;;;-1.20;99.90;;;;;;5089314;28;20384;-89
2023/01/21 03:18:54;;;;;;;;;;;;;;;;;;;;;
2023/01/21 03:32:14;;;;;;;;;;;;;;;;;;;;;
2023/01/21 03:35:40;;;;;;;4.10;3.67;;;-1.30;99.90;;;;;;4892746;29;20045;-90
2023/01/21 03:38:42;;;;;;;;;;;;;;;;;;;;;
2023/01/21 03:44:54;;;;;;;3.90;3.33;;;-1.30;99.90;;;;;;4973443;28;20034;-87
2023/01/21 03:48:13;;;;;;;;;;;;;;;;;;;;;
2023/01/21 03:57:14;;;;;;;6.05;4.55;;;-1.30;99.90;;;;;;5092615;28;20358;-87
2023/01/21 04:00:01;;;;;;;6.13;3.67;;;-1.30;99.90;;;;;;5093290;28;20024;-89
2023/01/21 04:05:58;;;;;;;;;;;;;;;;;;;;;
2023/01/21 04:12:14;;;;;;;;;;;;;;;;;;;;;
2023/01/21 04:14:58;;;;;;;;;;;;;;;;;;;;;
2023/01/21 04:20:16;;;;;;;5.25;4.13;;;-1.30;99.90;;;;;;5060917;22;20739;-84
2023/01/21 04:22:41;;;;;;;5.60;4.97;;;-1.30;99.90;;;;;;5054187;28;20099;-84
2023/01/21 04:25:07;;;;;;;6.40;4.18;;;-1.30;99.90;;;;;;5053060;28;20027;-84
2023/01/21 04:27:32;;;;;;;5.18;3.90;;;-1.30;99.90;;;;;;5052798;28;20021;-83
2023/01/21 04:29:58;;;;;;;7.13;4.43;;;-1.30;99.90;;;;;;5073945;28;20524;-81
2023/01/21 04:32:24;;;;;;;6.40;4.60;;;-1.30;99.90;;;;;;5056114;28;20039;-81
2023/01/21 04:34:49;;;;;;;5.88;4.05;;;-1.30;99.90;;;;;;5056015;28;20060;-82
2023/01/21 04:37:15;;;;;;;4.95;4.15;;;-1.30;99.90;;;;;;5073877;28;20086;-82
2023/01/21 04:39:40;;;;;;;7.18;4.90;;;-1.30;99.90;;;;;;5055394;28;20029;-81
2023/01/21 04:42:06;;;;;;;5.20;4.07;;;-1.30;99.90;;;;;;5055783;28;20059;-82
2023/01/21 04:44:31;;;;;;;5.65;4.78;;;-1.30;99.90;;;;;;5073679;28;20103;-81
2023/01/21 04:46:57;;;;;;;7.50;4.70;;;-1.30;99.90;;;;;;5055789;28;20023;-85
2023/01/21 04:49:23;;;;;;;5.78;4.15;;;-1.30;99.90;;;;;;5073591;28;20037;-84
2023/01/21 04:51:48;;;;;;;5.25;4.60;;;-1.30;99.90;;;;;;5055797;28;20020;-84
2023/01/21 04:54:14;;;;;;;7.13;5.25;;;-1.30;99.90;;;;;;5073563;28;20150;-86
2023/01/21 04:56:39;;;;;;;7.45;4.95;;;-1.30;99.90;;;;;;5055449;28;20036;-85
2023/01/21 04:59:05;;;;;;;6.43;5.65;;;-1.20;99.90;;;;;;5073496;28;20028;-82
2023/01/21 05:01:31;;;;;;;10.27;6.18;;;-1.30;99.90;;;;;;5055586;28;20094;-83
2023/01/21 05:03:56;;;;;;;7.10;5.75;;;-1.30;99.90;;;;;;5055474;28;20024;-83
2023/01/21 05:06:22;;;;;;;5.28;4.65;;;-1.30;99.90;;;;;;5055546;28;20120;-84
2023/01/21 05:08:47;;;;;;;7.50;5.88;;;-1.30;99.90;;;;;;5073398;28;20595;-85
2023/01/21 05:11:16;;;;;;;8.50;5.72;;;-1.30;99.90;;;;;;5073548;28;20066;-85
2023/01/21 05:13:42;;;;;;;8.23;6.70;;;-1.30;99.90;;;;;;5073094;28;20478;-84
2023/01/21 05:16:08;;;;;;;8.65;5.85;;;-1.30;99.90;;;;;;5073363;28;20099;-83
2023/01/21 05:18:36;;;;;;;6.15;5.20;;;-1.30;99.90;;;;;;5073315;28;20135;-85
2023/01/21 05:21:01;;;;;;;8.02;5.20;;;-1.30;99.90;;;;;;5072380;28;20027;-84
2023/01/21 05:23:27;;;;;;;7.47;5.72;;;-1.30;99.90;;;;;;5073245;28;20474;-85
2023/01/21 05:25:53;;;;;;;79.22;43.55;;;-1.30;99.90;;;;;;5073046;28;20028;-84
2023/01/21 05:28:18;;;;;;;11.02;8.38;;;-1.30;99.90;;;;;;5073117;28;20028;-84
2023/01/21 05:30:44;;;;;;;33.03;25.00;;;-1.30;99.90;;;;;;5071750;28;20474;-84
2023/01/21 05:33:09;;;;;;;9.85;7.00;;;-1.30;99.90;;;;;;5072246;28;20024;-84
2023/01/21 05:35:35;;;;;;;8.35;5.55;;;-1.30;99.90;;;;;;5071813;28;20545;-84
2023/01/21 05:38:00;;;;;;;6.03;4.50;;;-1.30;99.90;;;;;;5071746;28;20423;-86
2023/01/21 05:40:26;;;;;;;8.23;5.22;;;-1.30;99.90;;;;;;5071590;28;20505;-84
2023/01/21 05:42:52;;;;;;;8.57;5.55;;;-1.30;99.90;;;;;;5073041;28;20504;-84
2023/01/21 05:45:17;;;;;;;7.95;5.20;;;-1.30;99.90;;;;;;5071789;28;20430;-84
2023/01/21 05:47:43;;;;;;;12.75;8.25;;;-1.40;99.90;;;;;;5072006;28;20051;-84
2023/01/21 05:50:10;;;;;;;10.40;6.43;;;-1.30;99.90;;;;;;5073006;28;20115;-84
2023/01/21 05:52:36;;;;;;;7.57;5.93;;;-1.40;99.90;;;;;;5075160;28;20469;-84
2023/01/21 05:55:02;;;;;;;8.70;5.80;;;-1.30;99.90;;;;;;5076987;28;20096;-84
2023/01/21 05:57:28;;;;;;;9.50;5.85;;;-1.30;99.90;;;;;;5076863;28;20059;-83
2023/01/21 05:59:54;;;;;;;7.80;5.88;;;-1.30;99.90;;;;;;5076783;28;20035;-84
2023/01/21 06:02:20;;;;;;;7.22;5.88;;;-1.30;99.90;;;;;;5075437;28;20024;-87
2023/01/21 06:04:46;;;;;;;9.40;5.63;;;-1.30;99.90;;;;;;5075429;28;20052;-88
2023/01/21 06:07:11;;;;;;;7.47;5.63;;;-1.30;99.90;;;;;;5076478;28;20052;-84
2023/01/21 06:09:37;;;;;;;12.82;6.65;;;-1.30;99.90;;;;;;5076327;28;20044;-83
2023/01/21 06:12:02;;;;;;;51.10;35.22;;;-1.30;99.90;;;;;;5075186;28;20363;-84
2023/01/21 06:14:28;;;;;;;9.63;7.25;;;-1.30;99.90;;;;;;5075216;28;20374;-85
2023/01/21 06:16:53;;;;;;;6.50;5.28;;;-1.30;99.90;;;;;;5057745;28;20040;-84
2023/01/21 06:19:19;;;;;;;6.95;4.88;;;-1.30;99.90;;;;;;5056057;28;20049;-83
2023/01/21 06:21:45;;;;;;;7.28;5.15;;;-1.30;99.90;;;;;;5071785;28;20474;-84
2023/01/21 06:24:10;;;;;;;7.72;5.20;;;-1.30;99.90;;;;;;5056429;28;20052;-83
2023/01/21 06:26:36;;;;;;;8.60;5.38;;;-1.30;99.90;;;;;;5065485;28;20012;-83
2023/01/21 06:29:02;;;;;;;9.00;6.45;;;-1.30;99.90;;;;;;5075141;28;20074;-85
2023/01/21 06:31:27;;;;;;;8.55;5.32;;;-1.30;99.90;;;;;;5074255;28;20095;-85
2023/01/21 06:33:53;;;;;;;12.77;8.07;;;-1.30;99.90;;;;;;5065719;28;20036;-84
2023/01/21 06:36:18;;;;;;;10.52;5.75;;;-1.30;99.90;;;;;;5074223;28;20029;-84
2023/01/21 06:38:44;;;;;;;7.88;5.80;;;-1.30;99.90;;;;;;5075583;28;20036;-84
2023/01/21 06:41:09;;;;;;;10.88;7.00;;;-1.30;99.90;;;;;;5075710;28;20024;-86
2023/01/21 06:43:35;;;;;;;10.43;5.75;;;-1.30;99.90;;;;;;5075249;28;20032;-85
2023/01/21 06:46:01;;;;;;;10.32;7.20;;;-1.30;99.90;;;;;;5074634;28;20024;-86
2023/01/21 06:48:26;;;;;;;8.68;7.05;;;-1.30;99.90;;;;;;5075800;28;20500;-87
2023/01/21 06:50:52;;;;;;;10.13;8.07;;;-1.30;99.90;;;;;;5075337;28;20021;-85
2023/01/21 06:53:17;;;;;;;28.40;19.83;;;-1.30;99.90;;;;;;5075521;28;20024;-84
2023/01/21 06:55:43;;;;;;;9.27;5.90;;;-1.20;99.90;;;;;;5074585;28;20024;-84
2023/01/21 06:58:09;;;;;;;10.77;6.80;;;-1.20;99.90;;;;;;5075159;28;20035;-85
2023/01/21 07:00:34;;;;;;;12.70;9.10;;;-1.20;99.90;;;;;;5074810;28;20017;-83
2023/01/21 07:03:00;;;;;;;16.02;10.15;;;-1.20;99.90;;;;;;5075223;28;20020;-86
2023/01/21 07:05:26;;;;;;;12.00;9.45;;;-1.20;99.90;;;;;;5073624;28;20028;-85
2023/01/21 07:07:56;;;;;;;9.02;6.72;;;-1.10;99.90;;;;;;5073031;28;20131;-85
2023/01/21 07:10:23;;;;;;;6.22;5.10;;;-1.20;99.90;;;;;;5072363;28;20025;-86
2023/01/21 07:12:49;;;;;;;7.30;6.47;;;-1.10;99.90;;;;;;5072179;28;20026;-84
2023/01/21 07:15:14;;;;;;;7.70;6.40;;;-1.10;99.90;;;;;;5069615;28;20020;-86
2023/01/21 07:17:40;;;;;;;8.52;5.10;;;-1.10;99.90;;;;;;5071885;28;20036;-86
2023/01/21 07:20:06;;;;;;;11.30;7.20;;;-1.10;99.90;;;;;;5072899;28;20402;-88
2023/01/21 07:22:35;;;;;;;7.07;5.38;;;-1.10;99.90;;;;;;5073291;28;20102;-85
2023/01/21 07:25:00;;;;;;;8.93;5.93;;;-1.00;99.90;;;;;;5071578;28;20016;-87
2023/01/21 07:27:26;;;;;;;4.65;4.15;;;-1.00;99.90;;;;;;5071751;28;20025;-85
2023/01/21 07:29:52;;;;;;;5.28;4.03;;;-1.00;99.90;;;;;;5062541;28;20040;-83
2023/01/21 07:32:17;;;;;;;10.57;6.13;;;-1.00;99.90;;;;;;5072706;28;20033;-83
2023/01/21 07:34:43;;;;;;;8.77;5.32;;;-0.90;99.90;;;;;;5073281;28;20017;-83
2023/01/21 07:37:09;;;;;;;10.88;5.45;;;-0.90;99.90;;;;;;5071798;28;20036;-83
2023/01/21 07:39:34;;;;;;;6.47;4.60;;;-0.90;99.90;;;;;;5073613;28;20020;-81
2023/01/21 07:42:03;;;;;;;3.90;3.50;;;-0.90;99.90;;;;;;5072994;28;20028;-82
2023/01/21 07:44:29;;;;;;;9.25;5.55;;;-0.90;99.90;;;;;;5068664;28;20032;-84
2023/01/21 07:46:54;;;;;;;5.18;4.68;;;-0.80;99.90;;;;;;5074333;28;20070;-82
2023/01/21 07:49:20;;;;;;;6.50;5.05;;;-0.80;99.90;;;;;;5074366;28;20095;-83
2023/01/21 07:51:47;;;;;;;4.63;3.72;;;-0.80;99.90;;;;;;5069456;28;20437;-85
2023/01/21 07:54:13;;;;;;;5.68;5.07;;;-0.70;99.90;;;;;;5069044;28;20083;-85
2023/01/21 07:56:39;;;;;;;8.00;5.30;;;-0.60;99.90;;;;;;5063262;28;20036;-85
2023/01/21 07:59:05;;;;;;;5.95;4.75;;;-0.50;99.90;;;;;;5072260;28;20470;-84
2023/01/21 08:01:33;;;;;;;5.55;5.03;;;-0.40;99.90;;;;;;5074050;28;20028;-85
2023/01/21 08:03:59;;;;;;;5.53;4.32;;;-0.50;99.90;;;;;;5072323;28;20489;-84
2023/01/21 08:06:25;;;;;;;4.25;3.45;;;-0.40;99.90;;;;;;5072332;28;20024;-84
2023/01/21 08:08:50;;;;;;;4.13;3.13;;;-0.40;99.90;;;;;;5073754;28;20056;-85
2023/01/21 08:11:16;;;;;;;5.25;3.90;;;-0.30;99.90;;;;;;5072069;28;20056;-85
2023/01/21 08:13:43;;;;;;;6.88;4.75;;;-0.20;99.90;;;;;;5071298;28;20021;-85
2023/01/21 08:16:10;;;;;;;4.25;3.85;;;-0.10;99.90;;;;;;5073799;28;20024;-85
2023/01/21 08:18:36;;;;;;;5.78;3.85;;;0.00;99.90;;;;;;5072867;28;20086;-86
2023/01/21 08:21:02;;;;;;;3.95;3.60;;;0.10;99.90;;;;;;5072016;28;20029;-86
2023/01/21 08:23:27;;;;;;;4.00;3.50;;;0.00;99.90;;;;;;5068679;28;20032;-84
2023/01/21 08:25:53;;;;;;;4.10;3.28;;;-0.10;99.90;;;;;;5053255;28;20021;-85
2023/01/21 08:28:19;;;;;;;3.83;3.50;;;-0.30;99.90;;;;;;5067894;28;20025;-83
2023/01/21 08:30:45;;;;;;;5.50;4.78;;;-0.20;99.90;;;;;;5073472;28;20367;-86
2023/01/21 08:33:11;;;;;;;3.97;3.67;;;-0.20;99.90;;;;;;5067151;28;20115;-84
2023/01/21 08:35:36;;;;;;;5.70;4.55;;;0.00;99.90;;;;;;5073589;28;20031;-84
2023/01/21 08:38:02;;;;;;;8.18;5.28;;;-0.10;99.90;;;;;;5072905;28;20119;-84
2023/01/21 08:40:28;;;;;;;8.85;6.60;;;-0.10;99.90;;;;;;5073196;28;20470;-86
2023/01/21 08:42:58;;;;;;;7.30;5.40;;;0.00;99.90;;;;;;5072897;28;20028;-85
2023/01/21 08:45:24;;;;;;;21.35;13.15;;;0.00;99.90;;;;;;5071814;28;20058;-88
2023/01/21 08:47:50;;;;;;;8.73;7.70;;;0.10;99.90;;;;;;5072812;28;20020;-87
2023/01/21 08:50:16;;;;;;;10.63;8.50;;;0.10;99.90;;;;;;5072333;28;20416;-85
2023/01/21 08:52:41;;;;;;;11.60;8.63;;;0.10;99.90;;;;;;5072074;28;20013;-86
2023/01/21 08:55:07;;;;;;;15.90;11.00;;;0.20;99.90;;;;;;5073152;28;20021;-84
2023/01/21 08:57:33;;;;;;;22.63;12.85;;;0.20;99.90;;;;;;5072181;28;20036;-82
2023/01/21 08:59:58;;;;;;;10.80;5.93;;;0.10;99.90;;;;;;5072770;28;20036;-85
2023/01/21 09:02:24;;;;;;;9.25;8.02;;;0.20;99.90;;;;;;5073051;28;20487;-85
2023/01/21 09:04:50;;;;;;;10.75;8.23;;;0.20;99.90;;;;;;5072753;28;20032;-87
2023/01/21 09:07:15;;;;;;;10.35;7.90;;;0.30;99.90;;;;;;5072512;28;20028;-85
2023/01/21 09:09:41;;;;;;;9.43;8.18;;;0.30;99.90;;;;;;5071509;28;20020;-86
2023/01/21 09:12:07;;;;;;;16.95;9.70;;;0.40;99.90;;;;;;5072201;28;20088;-85
2023/01/21 09:14:33;;;;;;;9.85;6.22;;;0.40;99.90;;;;;;5071500;28;20087;-86
2023/01/21 09:16:58;;;;;;;5.20;3.20;;;0.50;99.90;;;;;;5070968;28;20119;-83
2023/01/21 09:19:24;;;;;;;4.35;3.58;;;0.30;99.90;;;;;;5069956;28;20049;-87
2023/01/21 09:21:51;;;;;;;5.75;4.55;;;0.30;99.90;;;;;;5071071;28;20382;-84
2023/01/21 09:24:17;;;;;;;6.28;4.97;;;0.30;99.90;;;;;;5069857;28;20035;-85
2023/01/21 09:27:00;;;;;;;6.32;5.25;;;0.30;99.90;;;;;;5070253;28;20024;-84
2023/01/21 09:29:26;;;;;;;6.13;4.50;;;0.30;99.90;;;;;;5089759;28;20432;-83
2023/01/21 09:31:51;;;;;;;45.03;18.98;;;0.20;99.90;;;;;;5072181;28;20027;-83
2023/01/21 09:34:17;;;;;;;6.05;4.00;;;0.30;99.90;;;;;;5070779;28;20040;-84
2023/01/21 09:36:43;;;;;;;12.90;6.43;;;0.30;99.90;;;;;;5072563;28;20041;-82
2023/01/21 09:39:11;;;;;;;3.65;3.35;;;0.20;99.90;;;;;;5071573;28;20103;-83
2023/01/21 09:41:49;;;;;;;5.03;3.78;;;0.30;99.90;;;;;;5070839;28;20830;-84
2023/01/21 09:44:30;;;;;;;6.50;4.30;;;0.30;99.90;;;;;;5072499;28;20110;-84
2023/01/21 09:47:08;;;;;;;4.45;4.03;;;0.40;99.90;;;;;;5072315;28;20028;-84
2023/01/21 09:49:41;;;;;;;5.65;4.60;;;0.50;99.90;;;;;;5071050;28;20056;-84
2023/01/21 09:52:29;;;;;;;4.53;3.97;;;0.60;99.90;;;;;;5070982;28;20020;-84
2023/01/21 09:54:57;;;;;;;6.47;4.53;;;0.60;99.90;;;;;;5068222;28;20427;-84
2023/01/21 09:57:50;;;;;;;4.75;3.72;;;0.60;99.90;;;;;;5069345;28;20032;-84
2023/01/21 10:00:44;;;;;;;3.90;3.50;;;0.60;99.90;;;;;;5070352;28;20013;-80
2023/01/21 10:03:53;;;;;;;14.02;8.30;;;0.80;99.90;;;;;;5072367;28;20025;-81
2023/01/21 10:06:42;;;;;;;51.72;22.85;;;0.70;99.90;;;;;;5071524;28;20458;-83
2023/01/21 10:09:38;;;;;;;48.55;20.85;;;0.70;99.90;;;;;;5072340;28;20082;-83
2023/01/21 10:12:33;;;;;;;41.42;18.33;;;0.90;99.90;;;;;;5068377;28;20482;-81
2023/01/21 10:15:17;;;;;;;17.35;7.18;;;0.90;99.90;;;;;;5068882;28;20067;-80
2023/01/21 10:18:09;;;;;;;12.75;7.30;;;0.90;99.90;;;;;;5069453;28;20028;-81
2023/01/21 10:20:56;;;;;;;20.50;10.20;;;1.00;99.90;;;;;;5062264;28;20109;-80
2023/01/21 10:23:25;;;;;;;12.07;7.47;;;1.00;99.90;;;;;;5068350;28;20023;-80
2023/01/21 10:25:51;;;;;;;24.50;11.88;;;1.00;99.90;;;;;;5070601;28;20032;-83
2023/01/21 10:28:38;;;;;;;20.17;11.18;;;1.10;99.90;;;;;;5070088;28;20025;-84
2023/01/21 10:31:15;;;;;;;15.35;8.38;;;1.10;99.90;;;;;;5091677;28;20032;-81
2023/01/21 10:33:40;;;;;;;12.75;8.27;;;1.00;99.90;;;;;;5072132;28;20071;-81
2023/01/21 10:36:20;;;;;;;15.98;9.52;;;1.00;99.90;;;;;;5069680;28;20020;-83
2023/01/21 10:39:04;;;;;;;10.23;6.93;;;1.10;99.90;;;;;;5072108;28;20069;-85
2023/01/21 10:41:45;;;;;;;6.95;5.93;;;1.00;99.90;;;;;;5072578;28;20031;-82
2023/01/21 10:44:32;;;;;;;25.77;13.23;;;1.00;99.90;;;;;;5073991;28;20128;-84
2023/01/21 10:47:23;;;;;;;6.57;4.82;;;1.00;99.90;;;;;;5074294;28;20086;-82
2023/01/21 10:49:54;;;;;;;15.60;9.75;;;0.90;99.90;;;;;;5073950;28;20024;-84
2023/01/21 10:52:58;;;;;;;39.40;18.70;;;1.00;99.90;;;;;;5066567;28;20453;-83
2023/01/21 10:55:33;;;;;;;63.28;29.63;;;1.00;99.90;;;;;;5053298;28;20021;-84
2023/01/21 10:58:10;;;;;;;30.27;15.60;;;1.00;99.90;;;;;;5035567;28;20040;-84
2023/01/21 11:00:42;;;;;;;38.47;19.00;;;1.00;99.90;;;;;;5052519;28;20531;-82
2023/01/21 11:03:33;;;;;;;8.98;6.05;;;1.00;99.90;;;;;;5051114;28;20467;-83
2023/01/21 11:06:03;;;;;;;22.63;14.35;;;0.90;99.90;;;;;;5049726;28;20049;-82
2023/01/21 11:08:29;;;;;;;12.00;8.52;;;1.00;99.90;;;;;;5049078;28;20064;-82
2023/01/21 11:10:55;;;;;;;9.73;6.40;;;0.80;99.90;;;;;;5049878;28;20032;-82
2023/01/21 11:13:22;;;;;;;16.08;9.90;;;0.80;99.90;;;;;;5050319;28;20036;-84
2023/01/21 11:15:52;;;;;;;8.10;5.55;;;0.90;99.90;;;;;;5032437;28;20025;-82
2023/01/21 11:18:37;;;;;;;20.05;11.45;;;0.70;99.90;;;;;;5054068;28;20068;-83
2023/01/21 11:21:18;;;;;;;23.55;12.57;;;0.60;99.90;;;;;;5054511;28;20371;-82
2023/01/21 11:23:55;;;;;;;45.22;20.98;;;0.80;99.90;;;;;;5073453;28;20021;-83
2023/01/21 11:26:30;;;;;;;11.35;8.25;;;0.90;99.90;;;;;;5074182;28;20025;-84
2023/01/21 11:29:25;;;;;;;14.13;8.60;;;1.10;99.90;;;;;;5074788;28;20431;-82
2023/01/21 11:32:30;;;;;;;17.15;9.05;;;1.20;99.90;;;;;;5044507;28;20060;-84
2023/01/21 11:35:07;;;;;;;103.57;42.45;;;1.10;99.90;;;;;;5056292;28;20561;-83
2023/01/21 11:37:34;;;;;;;71.07;29.45;;;1.00;99.90;;;;;;5056639;28;20037;-82
2023/01/21 11:40:04;;;;;;;55.67;23.73;;;1.00;99.90;;;;;;5074702;28;20085;-84
2023/01/21 11:42:30;;;;;;;42.80;18.35;;;1.00;99.90;;;;;;5057185;28;20103;-82
2023/01/21 11:45:17;;;;;;;33.55;14.45;;;0.90;99.90;;;;;;5074816;28;20078;-82
2023/01/21 11:47:48;;;;;;;66.25;25.20;;;0.80;99.90;;;;;;5060765;28;20382;-84
2023/01/21 11:50:36;;;;;;;65.85;26.83;;;0.90;99.90;;;;;;5056166;28;20033;-82
2023/01/21 11:53:18;;;;;;;30.00;15.52;;;1.00;99.90;;;;;;5074585;28;20445;-82
2023/01/21 11:55:47;;;;;;;39.35;20.10;;;1.20;99.90;;;;;;5056553;28;20048;-84
2023/01/21 11:58:33;;;;;;;29.08;15.25;;;1.30;99.90;;;;;;5074566;28;20044;-82
2023/01/21 12:01:01;;;;;;;52.13;24.60;;;1.30;99.90;;;;;;5056454;28;20046;-82
2023/01/21 12:03:53;;;;;;;22.45;13.13;;;1.40;99.90;;;;;;5056629;28;20495;-83
2023/01/21 12:06:25;;;;;;;23.02;14.98;;;1.30;99.90;;;;;;5056360;28;20016;-84
2023/01/21 12:08:59;;;;;;;77.50;30.70;;;1.30;99.90;;;;;;5056776;28;20017;-84
2023/01/21 12:11:26;;;;;;;69.97;31.20;;;1.30;99.90;;;;;;5056220;28;20029;-84
2023/01/21 12:14:03;;;;;;;140.73;53.83;;;1.40;99.90;;;;;;5074341;28;20023;-82
2023/01/21 12:16:35;;;;;;;75.35;29.17;;;1.40;99.90;;;;;;5074161;28;20024;-82
2023/01/21 12:19:16;;;;;;;98.20;38.30;;;1.40;99.90;;;;;;5061787;28;20490;-82
2023/01/21 12:21:42;;;;;;;51.15;21.65;;;1.40;99.90;;;;;;5074072;28;20039;-84
2023/01/21 12:24:48;;;;;;;40.63;18.65;;;1.40;99.90;;;;;;5072931;28;20033;-82
2023/01/21 12:27:43;;;;;;;56.20;29.13;;;1.40;99.90;;;;;;5060770;28;20056;-84
2023/01/21 12:30:35;;;;;;;106.13;48.80;;;1.20;99.90;;;;;;5073984;28;20092;-82
2023/01/21 12:33:15;;;;;;;30.35;15.70;;;1.20;99.90;;;;;;5074122;28;20021;-83
2023/01/21 12:35:53;;;;;;;84.00;37.28;;;1.10;99.90;;;;;;5072506;28;20044;-82
2023/01/21 12:38:24;;;;;;;82.38;36.33;;;1.20;99.90;;;;;;5073585;28;20489;-84
2023/01/21 12:40:58;;;;;;;101.47;49.38;;;1.20;99.90;;;;;;5073720;28;20367;-82
2023/01/21 12:43:34;;;;;;;127.68;61.78;;;1.20;99.90;;;;;;5072477;28;20021;-84
2023/01/21 12:46:12;;;;;;;138.95;65.80;;;1.30;99.90;;;;;;5073895;28;20044;-82
2023/01/21 12:49:06;;;;;;;130.15;56.88;;;1.30;99.90;;;;;;5074139;28;20063;-84
2023/01/21 12:51:39;;;;;;;97.97;41.97;;;1.40;99.90;;;;;;5072410;28;20393;-84
2023/01/21 12:54:05;;;;;;;;;;;1.40;99.90;;;;;;5072867;28;20017;-83
2023/01/21 12:56:57;;;;;;;87.55;43.53;;;1.40;99.90;;;;;;5072250;28;19927;-82
2023/01/21 12:59:51;;;;;;;60.83;35.33;;;1.30;99.90;;;;;;5073509;28;20033;-82
2023/01/21 13:02:31;;;;;;;32.17;20.50;;;1.30;99.90;;;;;;5073698;28;20025;-82
2023/01/21 13:05:05;;;;;;;32.80;19.92;;;1.20;99.90;;;;;;5073623;28;20028;-84
2023/01/21 13:07:42;;;;;;;55.08;25.20;;;1.20;99.90;;;;;;5073717;28;20020;-82
2023/01/21 13:10:39;;;;;;;55.60;26.65;;;1.20;99.90;;;;;;5073797;28;20028;-83
2023/01/21 13:13:19;;;;;;;43.00;22.90;;;1.20;99.90;;;;;;5071633;28;20393;-83
2023/01/21 13:15:49;;;;;;;70.10;29.48;;;1.20;99.90;;;;;;5072696;28;20017;-82
2023/01/21 13:18:20;;;;;;;53.92;25.42;;;1.20;99.90;;;;;;5073522;28;20048;-83
2023/01/21 13:20:57;;;;;;;40.33;21.65;;;1.20;99.90;;;;;;5073623;28;20070;-82
2023/01/21 13:23:32;;;;;;;69.10;33.38;;;1.20;99.90;;;;;;5055803;28;20029;-83
2023/01/21 13:26:37;;;;;;;51.92;25.30;;;1.20;99.90;;;;;;5073464;28;20405;-84
2023/01/21 13:29:34;;;;;;;83.38;46.50;;;1.20;99.90;;;;;;5055398;28;20146;-82
2023/01/21 13:32:26;;;;;;;26.20;15.93;;;1.10;99.90;;;;;;5073145;28;20425;-81
2023/01/21 13:35:07;;;;;;;66.35;28.05;;;1.10;99.90;;;;;;5055382;28;20052;-84
2023/01/21 13:38:19;;;;;;;55.22;22.50;;;1.10;99.90;;;;;;5055324;28;20044;-84
2023/01/21 13:41:03;;;;;;;39.25;21.83;;;1.10;99.90;;;;;;5056775;28;20044;-81
2023/01/21 13:43:58;;;;;;;27.90;17.10;;;1.10;99.90;;;;;;5055703;28;20096;-82
2023/01/21 13:46:34;;;;;;;15.75;9.63;;;1.10;99.90;;;;;;5054140;28;20505;-84
2023/01/21 13:49:20;;;;;;;53.38;28.38;;;1.10;99.90;;;;;;5053135;28;20466;-84
2023/01/21 13:52:01;;;;;;;105.68;55.78;;;1.00;99.90;;;;;;5054498;28;20552;-81
2023/01/21 13:55:04;;;;;;;46.42;23.30;;;1.00;99.90;;;;;;5072049;28;20039;-82
2023/01/21 13:57:49;;;;;;;32.85;18.83;;;1.00;99.90;;;;;;5072485;28;20036;-82
2023/01/21 14:00:25;;;;;;;33.83;19.45;;;1.00;99.90;;;;;;5054883;28;20020;-84
2023/01/21 14:03:03;;;;;;;31.35;18.52;;;0.90;99.90;;;;;;5055322;28;20077;-84
2023/01/21 14:05:42;;;;;;;50.95;24.40;;;0.90;99.90;;;;;;5073344;28;20432;-84
2023/01/21 14:08:29;;;;;;;52.70;25.73;;;0.90;99.90;;;;;;5055122;28;20024;-82
2023/01/21 14:11:04;;;;;;;95.53;49.72;;;0.80;99.90;;;;;;5073064;28;20025;-84
2023/01/21 14:13:49;;;;;;;182.27;82.82;;;0.80;99.90;;;;;;5058446;28;20065;-82
2023/01/21 14:16:33;;;;;;;117.60;47.28;;;0.80;99.90;;;;;;5076718;28;20024;-82
2023/01/21 14:19:07;;;;;;;50.40;23.73;;;0.80;99.90;;;;;;5076551;28;20072;-84
2023/01/21 14:21:41;;;;;;;62.17;32.15;;;0.70;99.90;;;;;;5076960;28;20121;-84
2023/01/21 14:24:31;;;;;;;48.90;26.17;;;0.70;99.90;;;;;;5076561;28;20086;-84
2023/01/21 14:27:19;;;;;;;34.42;16.27;;;0.70;99.90;;;;;;5075305;28;20039;-84
2023/01/21 14:29:50;;;;;;;26.40;13.95;;;0.70;99.90;;;;;;5076904;28;20359;-84
2023/01/21 14:32:39;;;;;;;32.47;15.90;;;0.70;99.90;;;;;;5075168;28;20088;-82
2023/01/21 14:35:32;;;;;;;45.75;23.45;;;0.70;99.90;;;;;;5075395;28;20025;-82
2023/01/21 14:38:35;;;;;;;57.25;27.20;;;0.60;99.90;;;;;;5075070;28;20036;-82
2023/01/21 14:41:10;;;;;;;47.07;23.30;;;0.60;99.90;;;;;;5076365;28;20021;-82
2023/01/21 14:43:36;;;;;;;45.15;23.23;;;0.60;99.90;;;;;;5074907;28;20278;-84
2023/01/21 14:46:26;;;;;;;39.92;21.08;;;0.60;99.90;;;;;;5074986;28;20123;-83
2023/01/21 14:49:07;;;;;;;44.75;25.38;;;0.50;99.90;;;;;;5075275;28;20441;-82
2023/01/21 14:51:41;;;;;;;48.30;26.95;;;0.50;99.90;;;;;;5074840;28;20031;-84
2023/01/21 14:54:16;;;;;;;39.83;21.05;;;0.50;99.90;;;;;;5076328;28;20462;-84
2023/01/21 14:57:02;;;;;;;34.22;20.80;;;0.40;99.90;;;;;;5076034;28;20497;-82